Time;durP1;ratioP1;P1;durP2;ratioP2;P2;SDS_P1;SDS_P2;PMS_P1;PMS_P2;Temp;Humidity;BMP_temperature;BMP_pressure;BME280_temperature;BME280_humidity;BME280_pressure;Samples;Min_cycle;Max_cycle;Signal;HPM_P1;HPM_P2
2022/07/22 00:01:59;;;;;;;22.17;15.95;;;;;;;;;;2474329;56;21388;-83
2022/07/22 00:04:27;;;;;;;23.12;17.17;;;;;;;;;;2475123;56;21637;-83
2022/07/22 00:06:54;;;;;;;20.40;16.20;;;;;;;;;;2472876;56;21086;-83
2022/07/22 00:09:21;;;;;;;23.90;16.87;;;;;;;;;;2474182;56;21162;-83
2022/07/22 00:11:48;;;;;;;21.42;17.12;;;;;;;;;;2249196;60;21551;-83
2022/07/22 00:14:15;;;;;;;26.42;19.45;;;;;;;;;;2474018;56;21796;-82
2022/07/22 00:16:42;;;;;;;24.02;18.58;;;;;;;;;;2248088;60;21134;-83
2022/07/22 00:19:09;;;;;;;21.25;16.92;;;;;;;;;;2249361;60;21077;-83
2022/07/22 00:21:36;;;;;;;23.12;18.05;;;;;;;;;;2249678;60;21663;-83
2022/07/22 00:24:04;;;;;;;23.65;17.98;;;;;;;;;;2249016;60;21066;-84
2022/07/22 00:26:31;;;;;;;23.60;17.25;;;;;;;;;;2473527;56;21118;-83
2022/07/22 00:28:58;;;;;;;22.42;17.77;;;;;;;;;;2474563;56;21070;-83
2022/07/22 00:31:25;;;;;;;22.55;15.65;;;;;;;;;;2474403;56;21073;-83
2022/07/22 00:33:52;;;;;;;24.02;18.10;;;;;;;;;;2475304;56;21069;-84
2022/07/22 00:36:20;;;;;;;23.90;17.40;;;;;;;;;;2249334;60;21086;-83
2022/07/22 00:38:47;;;;;;;26.85;18.98;;;;;;;;;;2474259;56;21077;-84
2022/07/22 00:41:14;;;;;;;25.00;18.77;;;;;;;;;;2475107;56;21105;-83
2022/07/22 00:43:51;;;;;;;22.95;18.60;;;;;;;;;;2249762;60;21129;-84
2022/07/22 00:46:18;;;;;;;24.58;18.83;;;;;;;;;;2473816;56;21054;-84
2022/07/22 00:48:45;;;;;;;24.08;18.65;;;;;;;;;;2249614;60;21090;-83
2022/07/22 00:51:12;;;;;;;25.50;18.50;;;;;;;;;;2250024;60;21078;-83
2022/07/22 00:53:39;;;;;;;24.70;18.83;;;;;;;;;;2474881;56;21129;-84
2022/07/22 00:56:07;;;;;;;21.90;17.27;;;;;;;;;;2249175;60;21168;-83
2022/07/22 00:58:34;;;;;;;29.15;20.42;;;;;;;;;;2249353;60;21082;-83
2022/07/22 01:01:01;;;;;;;24.70;18.73;;;;;;;;;;2248881;60;21069;-83
2022/07/22 01:03:28;;;;;;;30.75;19.87;;;;;;;;;;2475424;56;21551;-83
2022/07/22 01:05:55;;;;;;;25.37;17.85;;;;;;;;;;2473800;56;21599;-83
2022/07/22 01:08:22;;;;;;;28.05;16.92;;;;;;;;;;2248820;60;21558;-84
2022/07/22 01:10:49;;;;;;;32.97;16.75;;;;;;;;;;2249678;60;21213;-82
2022/07/22 01:13:16;;;;;;;25.30;13.93;;;;;;;;;;2474623;56;21098;-83
2022/07/22 01:15:43;;;;;;;22.58;13.35;;;;;;;;;;2474270;56;21185;-83
2022/07/22 01:18:10;;;;;;;17.25;10.82;;;;;;;;;;2475222;56;21121;-84
2022/07/22 01:20:38;;;;;;;12.30;7.57;;;;;;;;;;2249883;60;21094;-83
2022/07/22 01:23:05;;;;;;;13.27;7.82;;;;;;;;;;2249621;60;21066;-82
2022/07/22 01:25:32;;;;;;;7.62;6.25;;;;;;;;;;2474947;56;21165;-84
2022/07/22 01:27:59;;;;;;;8.23;5.60;;;;;;;;;;2474969;56;21138;-83
2022/07/22 01:30:26;;;;;;;6.80;5.20;;;;;;;;;;2248924;60;21193;-83
2022/07/22 01:32:53;;;;;;;7.50;4.53;;;;;;;;;;2475310;56;21073;-83
2022/07/22 01:35:20;;;;;;;5.97;3.90;;;;;;;;;;2249436;60;21082;-83
2022/07/22 01:37:47;;;;;;;4.87;3.55;;;;;;;;;;2475157;56;21101;-83
2022/07/22 01:40:14;;;;;;;6.00;3.00;;;;;;;;;;2475617;56;21078;-84
2022/07/22 01:42:41;;;;;;;5.68;2.67;;;;;;;;;;2249020;60;21070;-84
2022/07/22 01:45:10;;;;;;;3.72;1.77;;;;;;;;;;2250123;60;21077;-82
2022/07/22 01:47:37;;;;;;;1.77;1.40;;;;;;;;;;2249447;60;21062;-83
2022/07/22 01:50:05;;;;;;;4.50;1.45;;;;;;;;;;2249424;60;21145;-84
2022/07/22 01:52:32;;;;;;;2.42;1.40;;;;;;;;;;2475620;56;22163;-84
2022/07/22 01:54:59;;;;;;;5.95;2.17;;;;;;;;;;2249606;60;21058;-83
2022/07/22 01:57:26;;;;;;;3.45;1.60;;;;;;;;;;2475440;56;21615;-83
2022/07/22 01:59:53;;;;;;;4.68;1.50;;;;;;;;;;2474949;56;21650;-83
2022/07/22 02:02:20;;;;;;;3.75;1.50;;;;;;;;;;2475018;56;21385;-82
2022/07/22 02:04:47;;;;;;;6.03;1.77;;;;;;;;;;2475192;56;21153;-82
2022/07/22 02:07:14;;;;;;;4.30;1.60;;;;;;;;;;2248956;60;21065;-83
2022/07/22 02:09:41;;;;;;;4.35;1.90;;;;;;;;;;2249488;60;21066;-83
2022/07/22 02:12:08;;;;;;;4.55;1.73;;;;;;;;;;2475000;56;21672;-83
2022/07/22 02:14:36;;;;;;;3.45;1.83;;;;;;;;;;2249449;60;21066;-82
2022/07/22 02:17:03;;;;;;;5.53;1.73;;;;;;;;;;2247600;60;21093;-83
2022/07/22 02:19:30;;;;;;;5.53;1.75;;;;;;;;;;2474038;56;21145;-83
2022/07/22 02:21:57;;;;;;;4.28;2.15;;;;;;;;;;2473613;56;21130;-83
2022/07/22 02:24:24;;;;;;;7.50;2.15;;;;;;;;;;2474520;56;21201;-82
2022/07/22 02:26:51;;;;;;;6.37;2.50;;;;;;;;;;2474497;56;21129;-84
2022/07/22 02:29:18;;;;;;;10.02;3.83;;;;;;;;;;2474985;56;21133;-84
2022/07/22 02:31:46;;;;;;;9.40;3.25;;;;;;;;;;2248850;60;21177;-84
2022/07/22 02:34:13;;;;;;;7.90;3.75;;;;;;;;;;2473922;56;21197;-84
2022/07/22 02:36:40;;;;;;;9.57;4.35;;;;;;;;;;2248493;60;21065;-84
2022/07/22 02:39:07;;;;;;;13.35;4.75;;;;;;;;;;2474280;56;21126;-84
2022/07/22 02:41:34;;;;;;;11.40;4.10;;;;;;;;;;2474304;56;21066;-85
2022/07/22 02:44:01;;;;;;;10.63;4.20;;;;;;;;;;2473542;56;21193;-86
2022/07/22 02:46:28;;;;;;;8.80;3.95;;;;;;;;;;2247607;60;21555;-85
2022/07/22 02:48:56;;;;;;;13.73;4.95;;;;;;;;;;2473625;56;21078;-84
2022/07/22 02:51:23;;;;;;;11.27;5.28;;;;;;;;;;2474076;56;21066;-85
2022/07/22 02:53:50;;;;;;;13.73;5.22;;;;;;;;;;2474087;56;21081;-84
2022/07/22 02:56:19;;;;;;;11.90;4.78;;;;;;;;;;2248032;60;21074;-85
2022/07/22 02:58:46;;;;;;;10.77;4.68;;;;;;;;;;2473885;56;21089;-83
2022/07/22 03:01:14;;;;;;;12.50;4.90;;;;;;;;;;2248799;60;21070;-84
2022/07/22 03:03:41;;;;;;;12.37;4.82;;;;;;;;;;2249120;60;21158;-84
2022/07/22 03:06:08;;;;;;;13.07;5.30;;;;;;;;;;2473732;56;21097;-85
2022/07/22 03:08:35;;;;;;;12.68;4.82;;;;;;;;;;2249099;60;21097;-84
2022/07/22 03:11:02;;;;;;;12.70;5.00;;;;;;;;;;2474534;56;21081;-84
2022/07/22 03:13:29;;;;;;;12.07;4.53;;;;;;;;;;2474477;56;21157;-85
2022/07/22 03:15:56;;;;;;;13.48;5.28;;;;;;;;;;2474057;56;21090;-85
2022/07/22 03:18:23;;;;;;;17.98;5.65;;;;;;;;;;2474772;56;21522;-84
2022/07/22 03:20:50;;;;;;;12.05;4.47;;;;;;;;;;2249455;60;21414;-84
2022/07/22 03:23:17;;;;;;;11.15;4.45;;;;;;;;;;2248399;60;21825;-86
2022/07/22 03:25:44;;;;;;;12.30;4.43;;;;;;;;;;2473832;56;21586;-85
2022/07/22 03:28:11;;;;;;;16.65;4.82;;;;;;;;;;2474284;56;21082;-84
2022/07/22 03:30:38;;;;;;;12.98;4.80;;;;;;;;;;2474856;56;21145;-84
2022/07/22 03:33:05;;;;;;;9.18;4.20;;;;;;;;;;2474469;56;21161;-85
2022/07/22 03:35:32;;;;;;;12.05;4.95;;;;;;;;;;2473536;56;21109;-85
2022/07/22 03:37:59;;;;;;;18.12;6.05;;;;;;;;;;2248987;60;21213;-85
2022/07/22 03:40:26;;;;;;;14.00;5.82;;;;;;;;;;2248493;60;21085;-85
2022/07/22 03:42:53;;;;;;;12.00;5.78;;;;;;;;;;2248327;60;21689;-83
2022/07/22 03:45:20;;;;;;;8.85;6.00;;;;;;;;;;2473523;56;21201;-82
2022/07/22 03:47:47;;;;;;;13.00;6.85;;;;;;;;;;2247926;60;21373;-83
2022/07/22 03:50:14;;;;;;;10.27;6.28;;;;;;;;;;2474461;56;21122;-83
2022/07/22 03:52:41;;;;;;;9.65;6.30;;;;;;;;;;2474297;56;22111;-82
2022/07/22 03:55:09;;;;;;;15.52;7.70;;;;;;;;;;2249267;60;21149;-83
2022/07/22 03:57:36;;;;;;;13.85;7.37;;;;;;;;;;2248878;60;21091;-85
2022/07/22 04:00:04;;;;;;;15.27;7.30;;;;;;;;;;2475204;56;21081;-85
2022/07/22 04:02:31;;;;;;;12.95;6.30;;;;;;;;;;2474673;56;21082;-84
2022/07/22 04:04:58;;;;;;;13.80;6.35;;;;;;;;;;2473937;56;21182;-84
2022/07/22 04:07:25;;;;;;;13.13;6.82;;;;;;;;;;2248388;60;21146;-84
2022/07/22 04:10:04;;;;;;;11.52;5.90;;;;;;;;;;2249177;60;21078;-84
2022/07/22 04:12:31;;;;;;;18.90;7.05;;;;;;;;;;2474776;56;21189;-84
2022/07/22 04:14:58;;;;;;;12.50;6.20;;;;;;;;;;2248836;60;21125;-84
2022/07/22 04:17:25;;;;;;;9.23;4.82;;;;;;;;;;2248933;60;21217;-83
2022/07/22 04:19:53;;;;;;;12.60;6.15;;;;;;;;;;2474876;56;21122;-84
2022/07/22 04:22:20;;;;;;;13.57;5.97;;;;;;;;;;2248167;60;21090;-85
2022/07/22 04:24:47;;;;;;;9.30;4.28;;;;;;;;;;2473219;56;21117;-84
2022/07/22 04:27:14;;;;;;;11.00;4.62;;;;;;;;;;2248025;60;21083;-84
2022/07/22 04:29:41;;;;;;;6.20;3.33;;;;;;;;;;2248741;60;21692;-85
2022/07/22 04:32:08;;;;;;;11.02;4.25;;;;;;;;;;2248767;60;21134;-84
2022/07/22 04:34:35;;;;;;;10.50;5.22;;;;;;;;;;2249147;60;21145;-85
2022/07/22 04:37:02;;;;;;;10.68;4.03;;;;;;;;;;2248670;60;21069;-84
2022/07/22 04:39:29;;;;;;;11.80;4.50;;;;;;;;;;2248983;60;21618;-84
2022/07/22 04:41:56;;;;;;;8.35;3.60;;;;;;;;;;2474789;56;21064;-83
2022/07/22 04:44:23;;;;;;;4.72;2.97;;;;;;;;;;2474753;56;21197;-84
2022/07/22 04:46:50;;;;;;;8.70;3.70;;;;;;;;;;2249089;60;21117;-85
2022/07/22 04:49:17;;;;;;;6.37;3.05;;;;;;;;;;2474412;56;21077;-84
2022/07/22 04:51:44;;;;;;;8.95;3.17;;;;;;;;;;2249011;60;21126;-85
2022/07/22 04:54:11;;;;;;;5.65;2.92;;;;;;;;;;2474603;56;21169;-85
2022/07/22 04:56:39;;;;;;;8.05;3.20;;;;;;;;;;2249035;60;21058;-84
2022/07/22 04:59:06;;;;;;;8.93;2.95;;;;;;;;;;2249216;60;21626;-84
2022/07/22 05:01:33;;;;;;;7.50;3.10;;;;;;;;;;2249216;60;21129;-84
2022/07/22 05:04:00;;;;;;;7.25;2.87;;;;;;;;;;2248793;60;21566;-86
2022/07/22 05:06:27;;;;;;;12.13;3.60;;;;;;;;;;2248509;60;21090;-85
2022/07/22 05:08:54;;;;;;;8.95;3.10;;;;;;;;;;2248859;60;21090;-84
2022/07/22 05:11:21;;;;;;;8.90;2.97;;;;;;;;;;2249045;60;21134;-85
2022/07/22 05:13:48;;;;;;;5.32;2.62;;;;;;;;;;2474473;56;21102;-84
2022/07/22 05:16:15;;;;;;;9.18;2.90;;;;;;;;;;2249139;60;21594;-83
2022/07/22 05:18:42;;;;;;;12.07;3.92;;;;;;;;;;2248727;60;21080;-85
2022/07/22 05:21:09;;;;;;;7.35;2.55;;;;;;;;;;2249032;60;21098;-84
2022/07/22 05:23:36;;;;;;;6.80;2.75;;;;;;;;;;2475453;56;21172;-85
2022/07/22 05:26:04;;;;;;;9.07;3.00;;;;;;;;;;2249461;60;21078;-85
2022/07/22 05:28:31;;;;;;;9.75;3.53;;;;;;;;;;2249682;60;21070;-84
2022/07/22 05:30:58;;;;;;;6.35;2.90;;;;;;;;;;2249670;60;21149;-84
2022/07/22 05:33:25;;;;;;;6.50;3.30;;;;;;;;;;2475481;56;21050;-85
2022/07/22 05:35:52;;;;;;;10.27;2.85;;;;;;;;;;2248981;60;21098;-83
2022/07/22 05:38:20;;;;;;;21.75;4.90;;;;;;;;;;2475171;56;21133;-85
2022/07/22 05:40:47;;;;;;;8.55;3.53;;;;;;;;;;2249525;60;21630;-84
2022/07/22 05:43:14;;;;;;;8.05;3.42;;;;;;;;;;2474501;56;21162;-84
2022/07/22 05:45:41;;;;;;;10.73;3.65;;;;;;;;;;2475167;56;21149;-84
2022/07/22 05:48:08;;;;;;;11.40;3.20;;;;;;;;;;2249756;60;21073;-84
2022/07/22 05:50:36;;;;;;;10.50;3.15;;;;;;;;;;2249816;60;21149;-84
2022/07/22 05:53:03;;;;;;;9.25;3.62;;;;;;;;;;2249466;60;21574;-84
2022/07/22 05:55:30;;;;;;;9.57;3.37;;;;;;;;;;2475232;56;21150;-83
2022/07/22 05:57:57;;;;;;;9.10;2.97;;;;;;;;;;2475915;56;21114;-84
2022/07/22 06:00:25;;;;;;;10.15;3.83;;;;;;;;;;2475885;56;21097;-83
2022/07/22 06:02:52;;;;;;;13.38;4.43;;;;;;;;;;2475942;56;21082;-85
2022/07/22 06:05:19;;;;;;;8.63;3.20;;;;;;;;;;2249404;60;21086;-81
2022/07/22 06:07:46;;;;;;;8.57;2.92;;;;;;;;;;2476528;56;21034;-83
2022/07/22 06:10:13;;;;;;;7.37;3.05;;;;;;;;;;2250930;60;21126;-83
2022/07/22 06:12:40;;;;;;;7.78;2.97;;;;;;;;;;2249832;60;21625;-84
2022/07/22 06:15:07;;;;;;;8.93;2.97;;;;;;;;;;2475972;56;21110;-84
2022/07/22 06:17:34;;;;;;;11.55;3.50;;;;;;;;;;2475315;56;21070;-84
2022/07/22 06:20:01;;;;;;;8.32;3.17;;;;;;;;;;2475967;56;21086;-84
2022/07/22 06:22:29;;;;;;;7.68;3.37;;;;;;;;;;2249534;60;21622;-83
2022/07/22 06:24:56;;;;;;;8.98;3.55;;;;;;;;;;2250162;60;21153;-83
2022/07/22 06:27:23;;;;;;;12.37;3.62;;;;;;;;;;2248987;60;21121;-83
2022/07/22 06:29:50;;;;;;;8.30;3.17;;;;;;;;;;2248793;60;21173;-85
2022/07/22 06:32:17;;;;;;;12.02;3.58;;;;;;;;;;2249260;60;21677;-83
2022/07/22 06:34:44;;;;;;;10.68;3.47;;;;;;;;;;2249211;60;21621;-84
2022/07/22 06:37:11;;;;;;;14.07;4.07;;;;;;;;;;2249143;60;21149;-84
2022/07/22 06:39:38;;;;;;;12.45;3.55;;;;;;;;;;2475060;56;21073;-84
2022/07/22 06:42:05;;;;;;;8.60;3.45;;;;;;;;;;2249585;60;21118;-85
2022/07/22 06:44:32;;;;;;;9.35;3.20;;;;;;;;;;2474751;56;21061;-84
2022/07/22 06:46:59;;;;;;;16.75;4.18;;;;;;;;;;2474740;56;21058;-84
2022/07/22 06:49:26;;;;;;;13.52;3.75;;;;;;;;;;2475305;56;21070;-84
2022/07/22 06:51:53;;;;;;;10.10;3.67;;;;;;;;;;2474837;56;21074;-85
2022/07/22 06:54:20;;;;;;;7.28;3.45;;;;;;;;;;2248888;60;21110;-84
2022/07/22 06:56:47;;;;;;;15.35;4.03;;;;;;;;;;2248788;60;21070;-85
2022/07/22 06:59:14;;;;;;;12.43;4.30;;;;;;;;;;2249688;60;21188;-84
2022/07/22 07:01:41;;;;;;;12.13;3.97;;;;;;;;;;2475305;56;21137;-84
2022/07/22 07:04:08;;;;;;;10.60;3.67;;;;;;;;;;2249237;60;21642;-83
2022/07/22 07:06:35;;;;;;;9.27;3.80;;;;;;;;;;2474608;56;21538;-82
2022/07/22 07:09:03;;;;;;;13.07;3.30;;;;;;;;;;2474657;56;21170;-83
2022/07/22 07:11:30;;;;;;;11.50;3.78;;;;;;;;;;2474017;56;21058;-84
2022/07/22 07:13:57;;;;;;;9.65;3.60;;;;;;;;;;2249001;60;21081;-83
2022/07/22 07:16:24;;;;;;;10.70;3.60;;;;;;;;;;2249143;60;21145;-83
2022/07/22 07:18:51;;;;;;;11.32;3.25;;;;;;;;;;2474879;56;21077;-85
2022/07/22 07:21:19;;;;;;;8.90;3.12;;;;;;;;;;2248718;60;21558;-84
2022/07/22 07:23:45;;;;;;;9.57;3.22;;;;;;;;;;2472806;56;21149;-85
2022/07/22 07:26:13;;;;;;;14.43;3.28;;;;;;;;;;2248770;60;21097;-85
2022/07/22 07:28:41;;;;;;;10.75;3.97;;;;;;;;;;2474505;56;21090;-83
2022/07/22 07:31:08;;;;;;;8.13;3.25;;;;;;;;;;2474053;56;21451;-85
2022/07/22 07:33:35;;;;;;;9.05;3.83;;;;;;;;;;2249074;60;21590;-84
2022/07/22 07:36:02;;;;;;;7.00;2.90;;;;;;;;;;2248450;60;21109;-84
2022/07/22 07:38:30;;;;;;;10.40;3.47;;;;;;;;;;2248897;60;21086;-84
2022/07/22 07:40:57;;;;;;;9.10;3.40;;;;;;;;;;2474282;56;21094;-85
2022/07/22 07:43:24;;;;;;;12.25;3.87;;;;;;;;;;2472994;56;21070;-84
2022/07/22 07:45:50;;;;;;;14.13;4.10;;;;;;;;;;2247985;60;21773;-83
2022/07/22 07:48:18;;;;;;;8.57;4.20;;;;;;;;;;2248991;60;21090;-84
2022/07/22 07:50:45;;;;;;;9.02;3.30;;;;;;;;;;2248794;60;21062;-85
2022/07/22 07:53:15;;;;;;;11.10;3.08;;;;;;;;;;2248847;60;21640;-84
2022/07/22 07:55:42;;;;;;;9.95;3.22;;;;;;;;;;2248536;60;21100;-86
2022/07/22 07:58:09;;;;;;;14.65;3.47;;;;;;;;;;2474121;56;21098;-84
2022/07/22 08:00:38;;;;;;;9.18;3.40;;;;;;;;;;2475035;56;21089;-83
2022/07/22 08:03:06;;;;;;;11.35;3.95;;;;;;;;;;2474281;56;21490;-85
2022/07/22 08:05:33;;;;;;;10.88;3.20;;;;;;;;;;2474129;56;21085;-84
2022/07/22 08:08:00;;;;;;;15.27;4.47;;;;;;;;;;2249471;60;21074;-84
2022/07/22 08:10:27;;;;;;;12.57;3.85;;;;;;;;;;2475041;56;21142;-84
2022/07/22 08:12:55;;;;;;;8.20;3.35;;;;;;;;;;2474288;56;21064;-83
2022/07/22 08:15:22;;;;;;;11.02;5.50;;;;;;;;;;2248664;60;21073;-85
2022/07/22 08:17:49;;;;;;;9.05;3.08;;;;;;;;;;2249014;60;21181;-85
2022/07/22 08:20:16;;;;;;;12.48;3.47;;;;;;;;;;2474451;56;21193;-85
2022/07/22 08:22:43;;;;;;;13.88;3.70;;;;;;;;;;2474225;56;21126;-84
2022/07/22 08:25:10;;;;;;;10.73;3.62;;;;;;;;;;2249055;60;21062;-85
2022/07/22 08:27:37;;;;;;;14.98;3.50;;;;;;;;;;2474195;56;21146;-84
2022/07/22 08:30:06;;;;;;;9.00;3.33;;;;;;;;;;2249285;60;21153;-85
2022/07/22 08:32:33;;;;;;;5.50;2.72;;;;;;;;;;2248662;60;21066;-85
2022/07/22 08:35:00;;;;;;;9.60;3.53;;;;;;;;;;2248833;60;21623;-86
2022/07/22 08:37:27;;;;;;;12.63;3.25;;;;;;;;;;2473589;56;21682;-85
2022/07/22 08:39:54;;;;;;;14.57;3.33;;;;;;;;;;2474348;56;21089;-84
2022/07/22 08:42:22;;;;;;;9.93;3.50;;;;;;;;;;2474678;56;21098;-84
2022/07/22 08:44:49;;;;;;;12.02;3.15;;;;;;;;;;2474562;56;21133;-84
2022/07/22 08:47:16;;;;;;;8.07;2.60;;;;;;;;;;2249207;60;21117;-84
2022/07/22 08:49:43;;;;;;;8.82;2.80;;;;;;;;;;2474041;56;21070;-84
2022/07/22 08:52:10;;;;;;;9.80;2.78;;;;;;;;;;2473975;56;21066;-84
2022/07/22 08:54:37;;;;;;;10.70;3.08;;;;;;;;;;2474353;56;21365;-86
2022/07/22 08:57:04;;;;;;;11.93;3.25;;;;;;;;;;2248496;60;21078;-85
2022/07/22 08:59:31;;;;;;;9.40;3.37;;;;;;;;;;2474339;56;21142;-86
2022/07/22 09:02:06;;;;;;;9.45;2.70;;;;;;;;;;2248926;60;21646;-85
2022/07/22 09:04:50;;;;;;;14.10;2.97;;;;;;;;;;2473062;56;21129;-85
2022/07/22 09:07:23;;;;;;;12.43;3.15;;;;;;;;;;2249245;60;21074;-84
2022/07/22 09:09:50;;;;;;;7.75;2.53;;;;;;;;;;2474494;56;21141;-85
2022/07/22 09:12:18;;;;;;;6.30;2.28;;;;;;;;;;2474593;56;21050;-86
2022/07/22 09:14:45;;;;;;;8.00;2.40;;;;;;;;;;2249697;60;21086;-86
2022/07/22 09:17:26;;;;;;;10.30;2.80;;;;;;;;;;2249017;60;21122;-86
2022/07/22 09:19:53;;;;;;;8.35;2.40;;;;;;;;;;2249358;60;21725;-86
2022/07/22 09:22:33;;;;;;;9.98;2.67;;;;;;;;;;2248195;60;21614;-84
2022/07/22 09:25:17;;;;;;;8.57;2.42;;;;;;;;;;2474942;56;21074;-87
2022/07/22 09:27:43;;;;;;;;;;;;;;;;;;2478628;56;21166;-86
2022/07/22 09:30:12;;;;;;;9.02;2.40;;;;;;;;;;2249379;60;20078;-86
2022/07/22 09:32:40;;;;;;;8.10;2.25;;;;;;;;;;2249064;60;21149;-87
2022/07/22 09:35:08;;;;;;;14.27;2.83;;;;;;;;;;2474112;56;21062;-85
2022/07/22 09:37:35;;;;;;;11.25;2.22;;;;;;;;;;2248799;60;21066;-86
2022/07/22 09:40:13;;;;;;;8.30;2.35;;;;;;;;;;2248263;60;21081;-84
2022/07/22 09:42:46;;;;;;;8.05;2.30;;;;;;;;;;2249725;60;21176;-83
2022/07/22 09:45:13;;;;;;;12.23;2.47;;;;;;;;;;2249700;60;21150;-82
2022/07/22 09:47:42;;;;;;;9.90;2.20;;;;;;;;;;2248743;60;21142;-83
2022/07/22 09:50:15;;;;;;;8.65;2.25;;;;;;;;;;2249516;60;21173;-84
2022/07/22 09:52:42;;;;;;;8.20;2.80;;;;;;;;;;2249020;60;21654;-85
2022/07/22 09:55:09;;;;;;;11.18;2.45;;;;;;;;;;2248650;60;21129;-85
2022/07/22 09:57:36;;;;;;;7.12;2.37;;;;;;;;;;2248308;60;21143;-85
2022/07/22 10:00:06;;;;;;;8.88;1.95;;;;;;;;;;2248822;60;21090;-84
2022/07/22 10:02:34;;;;;;;8.63;2.20;;;;;;;;;;2474360;56;21098;-83
2022/07/22 10:05:01;;;;;;;6.53;2.00;;;;;;;;;;2474029;56;21137;-84
2022/07/22 10:07:28;;;;;;;9.20;2.22;;;;;;;;;;2248853;60;21158;-83
2022/07/22 10:09:55;;;;;;;6.05;1.95;;;;;;;;;;2248843;60;21066;-82
2022/07/22 10:12:23;;;;;;;9.50;2.67;;;;;;;;;;2249236;60;21074;-83
2022/07/22 10:14:50;;;;;;;8.82;2.45;;;;;;;;;;2474628;56;21066;-84
2022/07/22 10:17:17;;;;;;;9.65;2.65;;;;;;;;;;2249014;60;21133;-84
2022/07/22 10:19:44;;;;;;;7.93;2.45;;;;;;;;;;2474069;56;21473;-87
2022/07/22 10:22:30;;;;;;;10.18;2.12;;;;;;;;;;2248978;60;21133;-85
2022/07/22 10:25:01;;;;;;;9.57;2.30;;;;;;;;;;2248921;60;21609;-84
2022/07/22 10:27:45;;;;;;;8.35;2.37;;;;;;;;;;2248635;60;21146;-84
2022/07/22 10:30:13;;;;;;;7.45;2.25;;;;;;;;;;2249022;60;21137;-84
2022/07/22 10:32:40;;;;;;;9.25;2.00;;;;;;;;;;2248965;60;21110;-84
2022/07/22 10:35:26;;;;;;;7.15;1.70;;;;;;;;;;2473448;56;21160;-85
2022/07/22 10:37:54;;;;;;;9.85;2.00;;;;;;;;;;2250247;60;21114;-87
2022/07/22 10:40:24;;;;;;;15.02;2.42;;;;;;;;;;2473707;56;21697;-86
2022/07/22 10:43:04;;;;;;;8.98;2.10;;;;;;;;;;2474567;56;21335;-85
2022/07/22 10:45:33;;;;;;;8.80;2.03;;;;;;;;;;2473576;56;21161;-85
2022/07/22 10:48:01;;;;;;;12.25;2.17;;;;;;;;;;2474268;56;21141;-85
2022/07/22 10:50:42;;;;;;;5.62;2.00;;;;;;;;;;2249614;60;21113;-86
2022/07/22 10:53:10;;;;;;;4.68;1.75;;;;;;;;;;2473493;56;21145;-84
2022/07/22 10:55:38;;;;;;;5.75;1.98;;;;;;;;;;2473117;56;21606;-86
2022/07/22 10:58:24;;;;;;;9.48;2.05;;;;;;;;;;2248400;60;21090;-85
2022/07/22 11:00:51;;;;;;;4.40;1.40;;;;;;;;;;2248952;60;21117;-84
2022/07/22 11:03:25;;;;;;;7.68;1.95;;;;;;;;;;2474648;56;21574;-85
2022/07/22 11:05:52;;;;;;;5.70;2.25;;;;;;;;;;2248571;60;21586;-84
2022/07/22 11:08:20;;;;;;;7.18;2.05;;;;;;;;;;2249096;60;21698;-83
2022/07/22 11:10:49;;;;;;;7.57;1.90;;;;;;;;;;2474431;56;21177;-77
2022/07/22 11:13:31;;;;;;;6.65;1.55;;;;;;;;;;2248770;60;21125;-85
2022/07/22 11:16:14;;;;;;;8.07;2.05;;;;;;;;;;2248947;60;21129;-84
2022/07/22 11:18:51;;;;;;;7.00;1.70;;;;;;;;;;2249274;60;21098;-86
2022/07/22 11:21:19;;;;;;;7.82;1.67;;;;;;;;;;2249182;60;21149;-84
2022/07/22 11:23:47;;;;;;;4.12;1.70;;;;;;;;;;2474263;56;21078;-85
2022/07/22 11:26:15;;;;;;;9.07;2.10;;;;;;;;;;2473705;56;21074;-85
2022/07/22 11:28:43;;;;;;;4.60;1.98;;;;;;;;;;2474719;56;21162;-84
2022/07/22 11:31:11;;;;;;;5.45;1.62;;;;;;;;;;2249334;60;21129;-84
2022/07/22 11:33:38;;;;;;;6.62;1.37;;;;;;;;;;2474710;56;21074;-86
2022/07/22 11:36:06;;;;;;;3.30;1.58;;;;;;;;;;2248764;60;21626;-85
2022/07/22 11:38:47;;;;;;;6.03;1.75;;;;;;;;;;2249467;60;22163;-87
2022/07/22 11:41:14;;;;;;;6.05;1.52;;;;;;;;;;2474247;56;21146;-85
2022/07/22 11:43:43;;;;;;;7.30;1.70;;;;;;;;;;2249153;60;21630;-86
2022/07/22 11:46:10;;;;;;;4.68;1.60;;;;;;;;;;2248206;60;21069;-85
2022/07/22 11:48:37;;;;;;;6.93;1.65;;;;;;;;;;2249272;60;21070;-85
2022/07/22 11:51:05;;;;;;;3.40;1.52;;;;;;;;;;2474206;56;21165;-87
2022/07/22 11:53:32;;;;;;;3.75;1.40;;;;;;;;;;2474427;56;21145;-86
2022/07/22 11:55:59;;;;;;;4.97;1.40;;;;;;;;;;2248848;60;21073;-85
2022/07/22 11:58:36;;;;;;;7.82;1.90;;;;;;;;;;2249833;60;21073;-85
2022/07/22 12:01:04;;;;;;;5.32;1.42;;;;;;;;;;2474960;56;21404;-86
2022/07/22 12:03:31;;;;;;;3.03;1.30;;;;;;;;;;2249216;60;21073;-85
2022/07/22 12:05:58;;;;;;;5.53;1.67;;;;;;;;;;2473392;56;21067;-86
2022/07/22 12:08:25;;;;;;;3.15;1.30;;;;;;;;;;2249937;60;21066;-86
2022/07/22 12:10:53;;;;;;;6.70;1.62;;;;;;;;;;2473600;56;21625;-85
2022/07/22 12:13:20;;;;;;;5.37;1.60;;;;;;;;;;2251022;60;21118;-88
2022/07/22 12:15:47;;;;;;;5.35;1.52;;;;;;;;;;2474911;56;21149;-86
2022/07/22 12:18:19;;;;;;;5.70;1.40;;;;;;;;;;2474706;56;21086;-87
2022/07/22 12:20:46;;;;;;;6.15;1.98;;;;;;;;;;2249800;60;21097;-85
2022/07/22 12:23:13;;;;;;;5.15;1.37;;;;;;;;;;2249969;60;21070;-86
2022/07/22 12:25:53;;;;;;;5.25;1.58;;;;;;;;;;2474870;56;21118;-87
2022/07/22 12:28:20;;;;;;;5.97;1.73;;;;;;;;;;2250024;60;21665;-86
2022/07/22 12:30:48;;;;;;;3.65;1.23;;;;;;;;;;2248796;60;21070;-84
2022/07/22 12:33:15;;;;;;;6.37;1.85;;;;;;;;;;2474397;56;21134;-84
2022/07/22 12:35:42;;;;;;;4.05;1.40;;;;;;;;;;2474263;56;21578;-85
2022/07/22 12:38:10;;;;;;;7.65;1.42;;;;;;;;;;2249261;60;21117;-84
2022/07/22 12:40:37;;;;;;;6.07;1.65;;;;;;;;;;2474647;56;21070;-87
2022/07/22 12:43:06;;;;;;;5.60;2.20;;;;;;;;;;2474416;56;21089;-84
2022/07/22 12:45:34;;;;;;;6.55;1.17;;;;;;;;;;2473615;56;21117;-83
2022/07/22 12:48:07;;;;;;;5.68;1.85;;;;;;;;;;2249395;60;21082;-84
2022/07/22 12:50:35;;;;;;;4.10;1.35;;;;;;;;;;2474316;56;21105;-84
2022/07/22 12:53:04;;;;;;;5.20;1.45;;;;;;;;;;2473642;56;21121;-85
2022/07/22 12:55:32;;;;;;;3.92;1.10;;;;;;;;;;2249803;60;21329;-84
2022/07/22 12:57:59;;;;;;;4.78;1.25;;;;;;;;;;2249112;60;21669;-85
2022/07/22 13:00:28;;;;;;;6.37;1.40;;;;;;;;;;2249466;60;21102;-85
2022/07/22 13:02:55;;;;;;;5.68;1.62;;;;;;;;;;2474102;56;21130;-84
2022/07/22 13:05:23;;;;;;;6.85;1.60;;;;;;;;;;2248973;60;21559;-85
2022/07/22 13:07:50;;;;;;;5.85;2.45;;;;;;;;;;2473611;56;21101;-84
2022/07/22 13:10:17;;;;;;;3.87;1.15;;;;;;;;;;2248825;60;21539;-85
2022/07/22 13:12:47;;;;;;;4.93;1.40;;;;;;;;;;2473775;56;21150;-85
2022/07/22 13:15:14;;;;;;;6.60;1.50;;;;;;;;;;2248858;60;21105;-86
2022/07/22 13:17:42;;;;;;;5.07;1.20;;;;;;;;;;2474226;56;21089;-85
2022/07/22 13:20:10;;;;;;;3.45;1.20;;;;;;;;;;2249254;60;21074;-85
2022/07/22 13:22:37;;;;;;;2.20;0.95;;;;;;;;;;2474390;56;21062;-84
2022/07/22 13:25:05;;;;;;;4.60;1.33;;;;;;;;;;2473435;56;21101;-84
2022/07/22 13:27:32;;;;;;;5.12;1.20;;;;;;;;;;2473508;56;21073;-84
2022/07/22 13:29:59;;;;;;;3.00;1.25;;;;;;;;;;2474271;56;21174;-83
2022/07/22 13:32:26;;;;;;;3.50;1.12;;;;;;;;;;2474296;56;21065;-84
2022/07/22 13:34:53;;;;;;;5.45;1.48;;;;;;;;;;2249092;60;21578;-83
2022/07/22 13:37:21;;;;;;;2.97;1.25;;;;;;;;;;2473985;56;21566;-83
2022/07/22 13:39:48;;;;;;;5.85;1.15;;;;;;;;;;2249909;60;21118;-83
2022/07/22 13:42:17;;;;;;;7.62;1.60;;;;;;;;;;2249397;60;21178;-83
2022/07/22 13:44:44;;;;;;;3.72;1.40;;;;;;;;;;2248832;60;21161;-82
2022/07/22 13:47:11;;;;;;;4.32;1.50;;;;;;;;;;2249392;60;21343;-82
2022/07/22 13:49:38;;;;;;;5.25;1.77;;;;;;;;;;2474625;56;21077;-82
2022/07/22 13:52:06;;;;;;;6.37;1.55;;;;;;;;;;2249114;60;21074;-82
2022/07/22 13:54:33;;;;;;;7.40;1.75;;;;;;;;;;2475814;56;21158;-82
2022/07/22 13:57:01;;;;;;;7.25;1.67;;;;;;;;;;2474757;56;21106;-83
2022/07/22 13:59:29;;;;;;;4.20;1.27;;;;;;;;;;2473707;56;21615;-83
2022/07/22 14:01:56;;;;;;;7.18;1.80;;;;;;;;;;2475300;56;21566;-81
2022/07/22 14:04:23;;;;;;;6.10;1.70;;;;;;;;;;2248535;60;21559;-84
2022/07/22 14:06:50;;;;;;;6.35;1.83;;;;;;;;;;2248735;60;21583;-82
2022/07/22 14:09:17;;;;;;;5.97;1.20;;;;;;;;;;2474908;56;21173;-82
2022/07/22 14:11:44;;;;;;;3.37;1.17;;;;;;;;;;2248798;60;21140;-81
2022/07/22 14:14:12;;;;;;;5.35;1.60;;;;;;;;;;2248207;60;21073;-82
2022/07/22 14:16:39;;;;;;;4.35;1.10;;;;;;;;;;2248583;60;21074;-83
2022/07/22 14:19:08;;;;;;;4.12;1.23;;;;;;;;;;2474591;56;21069;-82
2022/07/22 14:21:35;;;;;;;5.60;1.55;;;;;;;;;;2248295;60;21093;-82
2022/07/22 14:24:03;;;;;;;4.53;1.27;;;;;;;;;;2474364;56;21138;-81
2022/07/22 14:26:30;;;;;;;4.82;1.58;;;;;;;;;;2473229;56;21094;-82
2022/07/22 14:28:57;;;;;;;4.97;1.10;;;;;;;;;;2248250;60;21698;-82
2022/07/22 14:31:25;;;;;;;5.57;1.30;;;;;;;;;;2473008;56;22268;-81
2022/07/22 14:33:52;;;;;;;3.75;1.37;;;;;;;;;;2473474;56;21090;-81
2022/07/22 14:36:19;;;;;;;2.17;1.17;;;;;;;;;;2247526;60;21551;-83
2022/07/22 14:38:46;;;;;;;4.53;1.40;;;;;;;;;;2248446;60;21091;-83
2022/07/22 14:41:13;;;;;;;5.10;1.35;;;;;;;;;;2247663;60;21078;-81
2022/07/22 14:43:40;;;;;;;6.65;1.42;;;;;;;;;;2247807;60;21133;-82